Time;durP1;ratioP1;P1;durP2;ratioP2;P2;SDS_P1;SDS_P2;PMS_P1;PMS_P2;Temp;Humidity;BMP_temperature;BMP_pressure;BME280_temperature;BME280_humidity;BME280_pressure;Samples;Min_cycle;Max_cycle;Signal;HPM_P1;HPM_P2
2022/09/20 00:01:21;;;;;;;3.63;2.77;;;9.70;99.90;;;;;;5047674;28;20276;-62
2022/09/20 00:03:49;;;;;;;3.15;2.85;;;10.10;99.90;;;;;;5042681;28;20438;-62
2022/09/20 00:06:17;;;;;;;5.40;3.08;;;9.70;99.90;;;;;;5039832;28;20222;-62
2022/09/20 00:08:44;;;;;;;3.30;3.10;;;9.70;99.90;;;;;;5039961;28;20257;-62
2022/09/20 00:11:14;;;;;;;3.55;3.05;;;10.20;99.90;;;;;;5046243;28;20266;-62
2022/09/20 00:13:41;;;;;;;5.15;2.92;;;9.50;99.90;;;;;;5045157;28;20183;-62
2022/09/20 00:16:12;;;;;;;7.55;2.92;;;9.90;99.90;;;;;;5047709;28;20182;-62
2022/09/20 00:18:38;;;;;;;3.40;2.80;;;10.20;99.90;;;;;;5042173;28;20663;-62
2022/09/20 00:21:04;;;;;;;3.73;3.30;;;10.20;99.90;;;;;;5037105;28;20192;-62
2022/09/20 00:23:31;;;;;;;3.00;2.70;;;10.00;99.90;;;;;;5040745;28;20565;-64
2022/09/20 00:25:59;;;;;;;4.65;3.20;;;9.80;99.90;;;;;;5039878;28;20698;-62
2022/09/20 00:28:26;;;;;;;3.25;2.60;;;9.80;99.90;;;;;;5036463;28;20227;-62
2022/09/20 00:30:52;;;;;;;3.30;3.00;;;9.80;99.90;;;;;;5044370;28;20184;-62
2022/09/20 00:33:18;;;;;;;3.10;2.80;;;10.10;99.90;;;;;;5049615;28;20528;-62
2022/09/20 00:35:45;;;;;;;3.25;2.78;;;10.10;99.90;;;;;;5042478;28;20202;-62
2022/09/20 00:38:12;;;;;;;3.53;3.20;;;10.00;99.90;;;;;;5047658;28;20181;-63
2022/09/20 00:40:39;;;;;;;3.80;2.75;;;10.40;99.90;;;;;;5047276;28;20195;-62
2022/09/20 00:43:05;;;;;;;3.85;3.00;;;9.50;99.90;;;;;;5046682;28;20193;-62
2022/09/20 00:45:30;;;;;;;3.60;3.03;;;10.20;99.90;;;;;;5044887;28;20214;-62
2022/09/20 00:48:05;;;;;;;3.20;2.90;;;9.90;99.90;;;;;;5043248;28;20198;-62
2022/09/20 00:50:33;;;;;;;3.25;2.60;;;10.00;99.90;;;;;;5045343;28;20186;-63
2022/09/20 00:53:23;;;;;;;3.85;3.00;;;10.00;99.90;;;;;;5038607;28;20191;-62
2022/09/20 00:55:54;;;;;;;4.35;2.80;;;10.10;99.90;;;;;;5043244;28;20211;-62
2022/09/20 00:58:22;;;;;;;3.65;2.83;;;10.10;99.90;;;;;;5045895;28;20236;-63
2022/09/20 01:00:50;;;;;;;5.50;3.10;;;10.40;99.90;;;;;;5042482;28;20199;-62
2022/09/20 01:03:19;;;;;;;3.40;2.60;;;10.00;99.90;;;;;;5045849;28;20185;-62
2022/09/20 01:05:45;;;;;;;2.65;2.33;;;10.10;99.90;;;;;;5048280;28;20693;-62
2022/09/20 01:08:11;;;;;;;3.47;2.40;;;9.90;99.90;;;;;;5041852;28;20302;-64
2022/09/20 01:10:37;;;;;;;3.90;2.70;;;10.00;99.90;;;;;;5042744;28;20815;-62
2022/09/20 01:13:04;;;;;;;3.13;2.15;;;10.10;99.90;;;;;;5050339;28;20182;-62
2022/09/20 01:15:33;;;;;;;6.55;2.50;;;9.90;99.90;;;;;;5048235;28;20211;-62
2022/09/20 01:18:00;;;;;;;2.88;2.40;;;10.00;99.90;;;;;;5044160;28;20639;-62
2022/09/20 01:20:32;;;;;;;2.58;2.38;;;10.10;99.90;;;;;;5045731;28;20656;-62
2022/09/20 01:23:26;;;;;;;3.08;2.40;;;10.40;99.90;;;;;;5050543;28;20186;-62
2022/09/20 01:26:28;;;;;;;2.60;2.40;;;10.10;99.90;;;;;;5048707;28;20236;-62
2022/09/20 01:29:36;;;;;;;4.47;2.55;;;9.90;99.90;;;;;;5041254;28;20218;-62
2022/09/20 01:32:07;;;;;;;4.45;2.72;;;9.90;99.90;;;;;;5048040;28;20174;-62
2022/09/20 01:34:36;;;;;;;2.97;2.72;;;10.20;99.90;;;;;;5047306;28;20234;-62
2022/09/20 01:37:14;;;;;;;2.42;2.22;;;10.00;99.90;;;;;;5044722;28;20186;-62
2022/09/20 01:39:55;;;;;;;3.13;2.42;;;10.20;99.90;;;;;;5048132;28;20197;-62
2022/09/20 01:42:28;;;;;;;2.50;2.28;;;10.10;99.90;;;;;;5043096;28;20190;-62
2022/09/20 01:45:14;;;;;;;3.20;2.35;;;10.20;99.90;;;;;;5046804;28;20210;-62
2022/09/20 01:48:06;;;;;;;2.90;2.50;;;10.10;99.90;;;;;;5045696;28;20189;-64
2022/09/20 01:50:54;;;;;;;3.08;2.42;;;9.90;99.90;;;;;;5043648;28;20183;-62
2022/09/20 01:53:47;;;;;;;2.60;2.40;;;10.00;99.90;;;;;;5043539;28;20213;-62
2022/09/20 01:56:41;;;;;;;3.35;2.10;;;10.10;99.90;;;;;;5044557;28;20265;-62
2022/09/20 01:59:45;;;;;;;3.13;2.05;;;10.20;99.90;;;;;;5040382;28;20190;-62
2022/09/20 02:02:10;;;;;;;2.75;2.45;;;10.10;99.90;;;;;;5041266;28;20186;-64
2022/09/20 02:04:43;;;;;;;2.60;2.40;;;10.20;99.90;;;;;;5041340;28;20289;-64
2022/09/20 02:07:41;;;;;;;2.53;2.33;;;10.10;99.90;;;;;;5046435;28;20186;-64
2022/09/20 02:10:25;;;;;;;5.75;2.67;;;10.40;99.90;;;;;;5027185;28;20865;-64
2022/09/20 02:12:55;;;;;;;5.00;2.20;;;10.10;99.90;;;;;;5048567;28;20185;-64
2022/09/20 02:15:50;;;;;;;3.22;2.47;;;9.90;99.90;;;;;;5045009;28;20292;-64
2022/09/20 02:18:44;;;;;;;3.58;2.40;;;10.00;99.90;;;;;;5034339;28;20175;-63
2022/09/20 02:21:12;;;;;;;5.18;2.70;;;9.90;99.90;;;;;;5038446;28;20294;-63
2022/09/20 02:24:04;;;;;;;2.17;2.08;;;10.00;99.90;;;;;;5040536;28;20670;-63
2022/09/20 02:26:45;;;;;;;2.30;2.10;;;9.90;99.90;;;;;;5042707;28;20222;-63
2022/09/20 02:29:22;;;;;;;5.35;2.28;;;10.20;99.90;;;;;;5046409;28;20183;-63
2022/09/20 02:32:18;;;;;;;3.05;2.40;;;10.20;99.90;;;;;;5036933;28;20240;-63
2022/09/20 02:35:04;;;;;;;6.50;2.13;;;10.30;99.90;;;;;;5046284;28;20207;-63
2022/09/20 02:37:48;;;;;;;4.05;2.20;;;10.10;99.90;;;;;;5043187;28;20218;-63
2022/09/20 02:40:59;;;;;;;7.47;4.47;;;10.10;99.90;;;;;;5046256;28;20190;-63
2022/09/20 02:43:32;;;;;;;5.75;2.60;;;10.10;99.90;;;;;;5041584;28;20259;-63
2022/09/20 02:46:21;;;;;;;2.88;2.15;;;10.20;99.90;;;;;;5046684;28;20730;-63
2022/09/20 02:49:17;;;;;;;2.13;2.03;;;10.10;99.90;;;;;;5049425;28;20182;-63
2022/09/20 02:51:54;;;;;;;3.03;2.60;;;10.40;99.90;;;;;;5044600;28;20186;-63
2022/09/20 02:54:51;;;;;;;6.22;2.00;;;10.10;99.90;;;;;;5045743;28;20205;-63
2022/09/20 02:57:29;;;;;;;3.25;2.35;;;10.10;99.90;;;;;;5044736;28;20170;-63
2022/09/20 03:00:09;;;;;;;2.63;2.22;;;10.50;99.90;;;;;;5037762;28;20186;-63
2022/09/20 03:02:50;;;;;;;3.55;3.20;;;10.40;99.90;;;;;;5044248;28;20194;-63
2022/09/20 03:05:24;;;;;;;6.60;2.60;;;10.40;99.90;;;;;;5033790;28;20746;-63
2022/09/20 03:08:23;;;;;;;3.15;2.30;;;10.40;99.90;;;;;;5044228;28;20567;-63
2022/09/20 03:11:11;;;;;;;3.13;2.10;;;10.70;99.90;;;;;;5048061;28;20174;-63
2022/09/20 03:14:14;;;;;;;3.50;2.13;;;10.40;99.90;;;;;;5045278;28;20196;-63
2022/09/20 03:16:57;;;;;;;3.15;2.15;;;10.50;99.90;;;;;;5030873;28;20183;-63
2022/09/20 03:20:00;;;;;;;4.43;2.42;;;10.20;99.90;;;;;;5044381;28;20193;-63
2022/09/20 03:22:29;;;;;;;4.85;2.45;;;10.30;99.90;;;;;;5039390;28;20321;-62
2022/09/20 03:25:13;;;;;;;3.45;2.05;;;10.30;99.90;;;;;;5042276;28;20210;-62
2022/09/20 03:28:16;;;;;;;3.25;2.60;;;10.20;99.90;;;;;;5041565;28;20263;-63
2022/09/20 03:31:10;;;;;;;4.78;2.00;;;10.10;99.90;;;;;;5046051;28;20186;-63
2022/09/20 03:33:38;;;;;;;3.22;2.92;;;10.10;99.90;;;;;;5041631;28;20210;-63
2022/09/20 03:36:40;;;;;;;10.45;2.50;;;10.20;99.90;;;;;;5043574;28;20237;-63
2022/09/20 03:39:50;;;;;;;5.20;3.08;;;10.10;99.90;;;;;;5044994;28;20205;-63
2022/09/20 03:42:23;;;;;;;4.40;2.00;;;10.30;99.90;;;;;;5003292;28;20685;-63
2022/09/20 03:45:04;;;;;;;2.28;2.03;;;10.60;99.90;;;;;;5037944;28;20218;-63
2022/09/20 03:47:35;;;;;;;3.50;2.33;;;10.40;99.90;;;;;;5042607;28;20591;-63
2022/09/20 03:50:31;;;;;;;2.38;2.17;;;10.40;99.90;;;;;;5041235;28;20178;-63
2022/09/20 03:53:32;;;;;;;6.28;3.42;;;10.50;99.90;;;;;;5045732;28;20717;-63
2022/09/20 03:56:25;;;;;;;3.00;2.13;;;10.50;99.90;;;;;;5041883;28;20296;-63
2022/09/20 03:58:59;;;;;;;3.95;2.40;;;10.20;99.90;;;;;;5047977;28;20664;-63
2022/09/20 04:01:44;;;;;;;2.50;2.30;;;10.20;99.90;;;;;;5043344;28;20200;-63
2022/09/20 04:04:18;;;;;;;2.60;2.15;;;10.30;99.90;;;;;;5043498;28;20241;-63
2022/09/20 04:06:58;;;;;;;3.88;2.13;;;10.20;99.90;;;;;;5041168;28;20206;-63
2022/09/20 04:09:46;;;;;;;4.75;2.80;;;10.70;99.90;;;;;;5047549;28;20191;-63
2022/09/20 04:12:18;;;;;;;4.80;2.70;;;10.70;99.90;;;;;;5043593;28;20182;-63
2022/09/20 04:14:52;;;;;;;5.53;2.35;;;10.40;99.90;;;;;;5038517;28;20301;-62
2022/09/20 04:17:38;;;;;;;7.03;2.75;;;10.50;99.90;;;;;;5049974;28;20182;-62
2022/09/20 04:20:19;;;;;;;3.35;2.40;;;10.40;99.90;;;;;;5047734;28;20187;-63
2022/09/20 04:22:50;;;;;;;2.70;2.05;;;10.30;99.90;;;;;;5044747;28;20762;-63
2022/09/20 04:25:22;;;;;;;4.53;2.70;;;10.50;99.90;;;;;;5049456;28;20239;-63
2022/09/20 04:27:57;;;;;;;2.80;2.40;;;10.70;99.90;;;;;;5045075;28;20261;-62
2022/09/20 04:30:29;;;;;;;7.68;2.70;;;10.40;99.90;;;;;;5044713;28;20275;-62
2022/09/20 04:33:09;;;;;;;4.07;3.63;;;10.30;99.90;;;;;;5045714;28;20248;-62
2022/09/20 04:38:41;;;;;;;4.18;2.80;;;10.50;99.90;;;;;;5048252;28;20617;-62
2022/09/20 04:41:27;;;;;;;4.10;2.75;;;10.20;99.90;;;;;;5046495;28;20195;-63
2022/09/20 04:44:11;;;;;;;3.97;3.42;;;10.40;99.90;;;;;;5047904;28;20723;-63
2022/09/20 04:47:14;;;;;;;3.80;2.70;;;10.40;99.90;;;;;;5042451;28;20214;-62
2022/09/20 04:49:58;;;;;;;3.83;3.35;;;10.60;99.90;;;;;;5045508;28;20202;-62
2022/09/20 04:52:42;;;;;;;4.40;3.03;;;10.50;99.90;;;;;;5047333;28;20210;-62
2022/09/20 04:55:11;;;;;;;3.63;3.15;;;10.60;99.90;;;;;;5045178;28;20238;-62
2022/09/20 04:58:15;;;;;;;13.40;8.10;;;10.50;99.90;;;;;;5048141;28;20226;-62
2022/09/20 05:01:15;;;;;;;2.72;2.53;;;10.80;99.90;;;;;;5051210;28;20729;-62
2022/09/20 05:03:50;;;;;;;6.43;3.45;;;10.60;99.90;;;;;;5045807;28;20188;-62
2022/09/20 05:06:42;;;;;;;8.48;4.03;;;10.60;99.90;;;;;;5049664;28;20214;-62
2022/09/20 05:09:45;;;;;;;6.45;4.22;;;10.90;99.90;;;;;;5036957;28;20242;-62
2022/09/20 05:12:53;;;;;;;7.65;5.05;;;10.70;99.90;;;;;;5042241;28;20557;-62
2022/09/20 05:15:56;;;;;;;7.00;4.90;;;10.60;99.90;;;;;;4989005;28;20313;-62
2022/09/20 05:18:53;;;;;;;6.07;5.13;;;10.30;99.90;;;;;;4984786;28;20223;-62
2022/09/20 05:21:27;;;;;;;7.18;4.93;;;10.90;99.90;;;;;;5034830;28;20189;-62
2022/09/20 05:24:22;;;;;;;5.60;4.63;;;11.10;99.90;;;;;;5044794;28;20220;-65
2022/09/20 05:27:06;;;;;;;5.00;4.50;;;10.80;99.90;;;;;;5051955;28;20205;-68
2022/09/20 05:29:51;;;;;;;5.00;4.50;;;11.10;99.90;;;;;;5049409;28;20183;-69
2022/09/20 05:32:44;;;;;;;8.00;4.75;;;10.90;99.90;;;;;;5048871;28;20663;-68
2022/09/20 05:35:32;;;;;;;7.20;4.60;;;11.00;99.90;;;;;;5045247;28;20212;-69
2022/09/20 05:38:13;;;;;;;4.53;4.13;;;11.10;99.90;;;;;;5046385;28;20192;-69
2022/09/20 05:41:02;;;;;;;10.48;4.88;;;11.60;99.90;;;;;;5036642;28;20196;-69
2022/09/20 05:43:33;;;;;;;6.63;4.32;;;11.30;99.90;;;;;;5037271;28;20199;-70
2022/09/20 05:46:20;;;;;;;6.90;4.90;;;11.00;99.90;;;;;;5049929;28;20197;-71
2022/09/20 05:48:57;;;;;;;6.20;4.75;;;11.20;99.90;;;;;;5049432;28;20209;-71
2022/09/20 05:51:59;;;;;;;5.55;4.60;;;11.20;99.90;;;;;;5048738;28;20226;-70
2022/09/20 05:54:44;;;;;;;7.75;6.95;;;11.20;99.90;;;;;;5045515;28;20202;-69
2022/09/20 05:57:50;;;;;;;6.57;5.70;;;11.20;99.90;;;;;;5037752;28;20199;-69
2022/09/20 06:00:21;;;;;;;7.35;5.57;;;11.20;99.90;;;;;;5036099;28;20229;-70
2022/09/20 06:03:05;;;;;;;5.50;4.97;;;11.10;99.90;;;;;;5047706;28;20189;-70
2022/09/20 06:06:04;;;;;;;6.15;5.10;;;11.10;99.90;;;;;;5035379;28;20789;-70
2022/09/20 06:08:48;;;;;;;6.00;5.25;;;11.00;99.90;;;;;;5041375;28;20263;-70
2022/09/20 06:11:19;;;;;;;5.75;5.25;;;11.10;99.90;;;;;;5040696;28;20177;-70
2022/09/20 06:14:02;;;;;;;5.40;4.90;;;11.40;99.90;;;;;;5048286;28;20184;-70
2022/09/20 06:17:00;;;;;;;6.45;4.65;;;11.50;99.90;;;;;;5039756;28;20634;-69
2022/09/20 06:19:45;;;;;;;5.13;3.40;;;11.60;99.90;;;;;;5040808;28;20216;-69
2022/09/20 06:22:38;;;;;;;6.25;5.03;;;11.60;99.90;;;;;;5041771;28;20185;-70
2022/09/20 06:25:07;;;;;;;5.78;4.38;;;11.80;99.90;;;;;;5036889;28;20216;-70
2022/09/20 06:27:51;;;;;;;4.13;3.70;;;11.80;99.90;;;;;;5046306;28;20195;-70
2022/09/20 06:30:34;;;;;;;5.53;3.80;;;12.10;99.90;;;;;;5043352;28;20699;-70
2022/09/20 06:33:20;;;;;;;6.50;4.20;;;11.80;99.90;;;;;;5047208;28;20258;-70
2022/09/20 06:35:52;;;;;;;5.25;3.40;;;12.30;99.90;;;;;;5047131;28;20254;-69
2022/09/20 06:41:27;;;;;;;4.85;3.92;;;12.00;99.90;;;;;;5045305;28;20202;-69
2022/09/20 06:43:57;;;;;;;6.60;3.75;;;12.10;99.90;;;;;;5047362;28;20208;-69
2022/09/20 06:46:23;;;;;;;4.35;3.60;;;12.00;99.90;;;;;;5049911;28;20259;-69
2022/09/20 06:48:49;;;;;;;7.10;4.13;;;12.20;99.90;;;;;;5046812;28;20181;-69
2022/09/20 06:51:15;;;;;;;4.97;4.10;;;12.10;99.90;;;;;;5045429;28;20863;-69
2022/09/20 06:53:41;;;;;;;6.03;3.97;;;12.00;99.90;;;;;;5037930;28;20182;-69
2022/09/20 06:56:13;;;;;;;5.32;4.50;;;12.00;99.90;;;;;;5041771;28;20177;-69
2022/09/20 06:58:38;;;;;;;4.32;3.45;;;12.10;99.90;;;;;;5037696;28;20264;-69
2022/09/20 07:01:04;;;;;;;5.80;4.17;;;12.10;99.90;;;;;;5043880;28;20620;-69
2022/09/20 07:03:30;;;;;;;6.33;4.47;;;12.10;99.90;;;;;;5046299;28;20209;-69
2022/09/20 07:05:57;;;;;;;9.05;5.45;;;12.70;99.90;;;;;;5043198;28;20217;-69
2022/09/20 07:08:24;;;;;;;6.40;3.90;;;13.50;99.90;;;;;;5037113;28;20210;-69
2022/09/20 07:10:49;;;;;;;7.80;3.20;;;15.00;99.90;;;;;;5042409;28;20256;-67
2022/09/20 07:13:19;;;;;;;4.00;2.83;;;16.30;99.90;;;;;;5044289;28;20186;-68
2022/09/20 07:15:44;;;;;;;5.15;2.90;;;18.80;99.90;;;;;;5037284;28;20232;-68
2022/09/20 07:18:10;;;;;;;5.43;3.37;;;21.10;95.90;;;;;;5047568;28;20200;-68
2022/09/20 07:20:35;;;;;;;6.60;3.20;;;21.70;92.00;;;;;;5047453;28;20274;-68
2022/09/20 07:23:01;;;;;;;2.83;2.30;;;22.10;90.90;;;;;;5036163;28;20622;-68
2022/09/20 07:25:27;;;;;;;4.70;2.30;;;23.70;87.30;;;;;;5045106;28;20760;-68
2022/09/20 07:27:52;;;;;;;3.60;2.30;;;22.70;79.80;;;;;;5045704;28;20439;-69
2022/09/20 07:30:19;;;;;;;3.20;2.33;;;21.60;82.30;;;;;;5046631;28;20177;-68
2022/09/20 07:32:45;;;;;;;8.63;3.47;;;20.60;85.70;;;;;;5046430;28;20562;-68
2022/09/20 07:35:11;;;;;;;3.83;3.00;;;19.80;89.80;;;;;;5039746;28;20209;-68
2022/09/20 07:37:40;;;;;;;4.75;4.00;;;19.30;90.30;;;;;;5044925;28;20188;-68
2022/09/20 07:40:07;;;;;;;4.97;2.65;;;19.70;91.40;;;;;;5044483;28;20193;-68
2022/09/20 07:42:32;;;;;;;4.85;3.30;;;19.20;90.40;;;;;;5047905;28;20192;-68
2022/09/20 07:45:00;;;;;;;3.57;2.80;;;18.50;91.20;;;;;;5041994;28;20228;-68
2022/09/20 07:47:27;;;;;;;5.82;2.92;;;18.50;91.60;;;;;;5049439;28;20184;-70
2022/09/20 07:49:54;;;;;;;6.53;2.35;;;19.60;90.70;;;;;;5046328;28;20178;-70
2022/09/20 07:52:19;;;;;;;3.30;2.97;;;20.10;89.40;;;;;;5043545;28;20180;-70
2022/09/20 07:54:46;;;;;;;6.43;3.17;;;20.50;90.10;;;;;;5051541;28;20205;-70
2022/09/20 07:57:12;;;;;;;4.10;2.60;;;21.90;83.50;;;;;;5037927;28;20387;-68
2022/09/20 07:59:37;;;;;;;5.17;1.90;;;21.90;84.10;;;;;;5045767;28;20487;-68
2022/09/20 08:02:03;;;;;;;5.30;2.30;;;23.00;75.30;;;;;;5048616;28;20544;-68
2022/09/20 08:04:29;;;;;;;3.57;2.40;;;21.90;78.00;;;;;;5043071;28;20225;-68
2022/09/20 08:06:55;;;;;;;5.73;2.73;;;22.90;78.90;;;;;;5046813;28;20220;-68
2022/09/20 08:09:21;;;;;;;4.13;2.63;;;23.70;73.60;;;;;;5039178;28;20273;-68
2022/09/20 08:11:47;;;;;;;3.90;2.20;;;22.50;75.40;;;;;;5048398;28;20543;-68
2022/09/20 08:14:14;;;;;;;4.80;4.07;;;21.60;74.80;;;;;;5033727;28;20221;-70
2022/09/20 08:16:42;;;;;;;3.95;1.92;;;20.80;77.00;;;;;;5041287;28;20680;-70
2022/09/20 08:19:13;;;;;;;3.63;2.30;;;19.60;77.80;;;;;;5041982;28;20186;-69
2022/09/20 08:21:39;;;;;;;6.18;2.30;;;19.20;80.80;;;;;;5049293;28;20188;-70
2022/09/20 08:24:05;;;;;;;3.40;2.22;;;18.60;82.20;;;;;;5030891;28;20209;-70
2022/09/20 08:26:31;;;;;;;3.93;2.00;;;18.10;87.00;;;;;;5041221;28;20218;-70
2022/09/20 08:28:58;;;;;;;6.03;2.70;;;17.40;88.30;;;;;;5041671;28;20444;-69
2022/09/20 08:31:26;;;;;;;6.43;2.53;;;17.40;89.60;;;;;;5046743;28;20538;-70
2022/09/20 08:33:53;;;;;;;4.85;1.80;;;18.10;91.00;;;;;;5039016;28;20209;-70
2022/09/20 08:36:21;;;;;;;2.50;2.22;;;17.20;88.50;;;;;;5048228;28;20181;-70
2022/09/20 08:38:47;;;;;;;4.72;2.63;;;17.00;90.00;;;;;;5047200;28;20231;-70
2022/09/20 08:41:41;;;;;;;2.97;2.60;;;16.80;90.90;;;;;;5055991;28;20205;-70
2022/09/20 08:44:25;;;;;;;4.85;1.80;;;16.00;91.40;;;;;;5017080;28;20707;-70
2022/09/20 08:47:24;;;;;;;4.90;2.53;;;15.60;92.00;;;;;;5039446;28;20205;-68
2022/09/20 08:49:52;;;;;;;3.80;2.55;;;15.60;93.70;;;;;;5038942;28;20539;-69
2022/09/20 08:52:29;;;;;;;6.22;2.35;;;15.70;94.60;;;;;;5044224;28;20651;-70
2022/09/20 08:54:59;;;;;;;5.75;2.35;;;15.70;94.30;;;;;;5048537;28;20205;-70
2022/09/20 08:57:29;;;;;;;6.72;3.35;;;15.60;94.00;;;;;;5043509;28;20189;-70
2022/09/20 08:59:57;;;;;;;6.68;2.30;;;15.80;95.10;;;;;;5038504;28;20190;-70
2022/09/20 09:02:23;;;;;;;3.60;2.35;;;15.60;94.80;;;;;;5046924;28;20174;-70
2022/09/20 09:04:52;;;;;;;5.63;2.23;;;15.90;93.70;;;;;;5045410;28;20552;-69
2022/09/20 09:07:20;;;;;;;7.55;2.03;;;15.80;93.50;;;;;;5039628;28;20197;-70
2022/09/20 09:09:50;;;;;;;7.18;2.65;;;16.00;92.80;;;;;;5034558;28;20819;-69
2022/09/20 09:12:21;;;;;;;4.50;2.13;;;15.90;91.90;;;;;;5048462;28;20253;-70
2022/09/20 09:14:56;;;;;;;4.43;1.73;;;16.50;91.40;;;;;;5048912;28;20205;-69
2022/09/20 09:17:27;;;;;;;9.40;1.75;;;16.60;92.00;;;;;;5050132;28;20185;-70
2022/09/20 09:19:58;;;;;;;6.00;2.25;;;16.80;91.30;;;;;;5047199;28;20189;-69
2022/09/20 09:22:39;;;;;;;2.65;1.75;;;16.70;91.50;;;;;;5046095;28;20248;-71
2022/09/20 09:25:33;;;;;;;3.95;2.13;;;16.20;90.10;;;;;;5038328;28;20273;-70
2022/09/20 09:28:07;;;;;;;5.38;2.10;;;16.10;90.70;;;;;;5036160;28;20368;-70
2022/09/20 09:30:33;;;;;;;5.35;2.20;;;15.60;92.00;;;;;;5038927;28;20673;-70
2022/09/20 09:33:25;;;;;;;4.30;1.80;;;15.40;93.40;;;;;;5036781;28;20177;-70
2022/09/20 09:35:55;;;;;;;3.13;2.10;;;15.40;93.90;;;;;;5042473;28;20265;-69
2022/09/20 09:38:23;;;;;;;3.83;1.80;;;15.20;94.20;;;;;;5045129;28;20189;-70
2022/09/20 09:40:56;;;;;;;2.38;2.17;;;15.20;94.20;;;;;;5044818;28;20646;-71
2022/09/20 09:43:27;;;;;;;3.95;2.15;;;15.70;94.40;;;;;;5045977;28;20572;-70
2022/09/20 09:45:54;;;;;;;3.75;1.67;;;16.40;92.80;;;;;;5040186;28;20734;-70
2022/09/20 09:48:26;;;;;;;4.40;1.90;;;16.80;91.40;;;;;;5049883;28;20594;-70
2022/09/20 09:51:25;;;;;;;2.95;2.13;;;16.70;91.40;;;;;;5040442;28;20268;-70
2022/09/20 09:53:51;;;;;;;3.80;2.20;;;16.80;90.80;;;;;;5011131;28;20235;-70
2022/09/20 09:56:40;;;;;;;8.07;2.20;;;16.10;90.50;;;;;;5050576;28;20182;-70
2022/09/20 09:59:24;;;;;;;7.47;4.03;;;16.20;92.60;;;;;;5040818;28;20666;-70
2022/09/20 10:01:58;;;;;;;8.27;2.70;;;15.80;92.40;;;;;;5049119;28;20197;-71
2022/09/20 10:04:40;;;;;;;3.17;1.65;;;15.60;92.20;;;;;;5047962;28;20235;-70
2022/09/20 10:07:19;;;;;;;4.03;1.80;;;15.20;92.00;;;;;;5042514;28;20299;-71
2022/09/20 10:10:03;;;;;;;3.55;1.88;;;15.30;92.50;;;;;;5047091;28;20209;-70
2022/09/20 10:12:45;;;;;;;2.45;1.70;;;15.40;92.90;;;;;;5043084;28;20634;-71
2022/09/20 10:15:25;;;;;;;4.80;2.72;;;15.90;92.90;;;;;;5048775;28;20205;-71
2022/09/20 10:18:17;;;;;;;4.45;1.98;;;15.90;91.50;;;;;;5041740;28;20644;-70
2022/09/20 10:20:54;;;;;;;8.63;2.53;;;15.70;91.50;;;;;;5041686;28;20277;-70
2022/09/20 10:23:56;;;;;;;4.45;2.13;;;15.80;91.50;;;;;;5044111;28;20223;-71
2022/09/20 10:26:43;;;;;;;2.47;1.65;;;15.80;90.60;;;;;;5029721;28;20717;-71
2022/09/20 10:29:24;;;;;;;2.00;1.63;;;16.10;91.10;;;;;;5037433;28;20174;-70
2022/09/20 10:32:19;;;;;;;5.47;3.00;;;16.20;90.30;;;;;;5042804;28;20207;-71
2022/09/20 10:34:56;;;;;;;2.58;1.63;;;16.00;90.80;;;;;;5038676;28;20913;-71
2022/09/20 10:37:32;;;;;;;3.10;1.95;;;16.50;90.40;;;;;;5048820;28;20181;-70
2022/09/20 10:40:18;;;;;;;1.90;1.60;;;16.00;90.60;;;;;;5044557;28;20288;-71
2022/09/20 10:43:13;;;;;;;4.15;2.00;;;16.50;91.70;;;;;;5042342;28;20681;-70
2022/09/20 10:45:53;;;;;;;6.75;2.58;;;16.70;90.30;;;;;;5041066;28;20220;-69
2022/09/20 10:48:31;;;;;;;2.65;2.05;;;17.00;89.90;;;;;;5045933;28;20181;-72
2022/09/20 10:51:14;;;;;;;2.63;1.67;;;16.80;88.40;;;;;;5046666;28;20185;-70
2022/09/20 10:53:58;;;;;;;5.63;2.38;;;16.90;87.80;;;;;;5041134;28;20646;-73
2022/09/20 10:56:32;;;;;;;5.20;2.10;;;16.60;86.80;;;;;;5044719;28;20201;-70
2022/09/20 10:59:19;;;;;;;4.20;1.83;;;16.80;86.70;;;;;;5049220;28;20192;-70
2022/09/20 11:01:51;;;;;;;1.95;1.50;;;16.60;85.60;;;;;;5033367;28;20185;-70
2022/09/20 11:04:31;;;;;;;3.65;1.30;;;16.60;82.60;;;;;;5041130;28;20205;-67
2022/09/20 11:07:34;;;;;;;2.95;1.63;;;16.50;83.90;;;;;;5043471;28;20292;-72
2022/09/20 11:10:19;;;;;;;3.40;1.75;;;16.90;84.90;;;;;;5047258;28;20215;-71
2022/09/20 11:13:19;;;;;;;4.95;1.80;;;17.10;85.40;;;;;;5048384;28;20685;-72
2022/09/20 11:16:09;;;;;;;1.98;1.48;;;16.70;84.50;;;;;;5046513;28;20308;-72
2022/09/20 11:19:06;;;;;;;3.85;3.42;;;17.10;84.40;;;;;;5045129;28;20197;-71
2022/09/20 11:21:41;;;;;;;2.90;2.30;;;17.00;84.80;;;;;;5026548;28;20202;-72
2022/09/20 11:24:29;;;;;;;10.40;2.20;;;17.10;82.90;;;;;;5047670;28;20338;-71
2022/09/20 11:27:10;;;;;;;3.53;1.92;;;17.10;82.80;;;;;;5044525;28;20229;-71
2022/09/20 11:29:42;;;;;;;3.15;1.92;;;17.20;82.80;;;;;;5046001;28;20654;-71
2022/09/20 11:32:19;;;;;;;3.03;2.03;;;17.00;82.70;;;;;;5043250;28;20196;-71
2022/09/20 11:35:01;;;;;;;3.17;2.13;;;17.20;80.50;;;;;;5045924;28;20205;-72
2022/09/20 11:37:32;;;;;;;4.22;1.60;;;17.30;80.20;;;;;;5039526;28;20216;-71
2022/09/20 11:40:11;;;;;;;4.60;1.70;;;17.30;80.00;;;;;;5046656;28;20197;-71
2022/09/20 11:42:40;;;;;;;3.63;1.40;;;17.50;81.40;;;;;;5042367;28;20205;-72
2022/09/20 11:45:06;;;;;;;2.47;2.13;;;17.50;80.40;;;;;;5047043;28;20566;-71
2022/09/20 11:47:40;;;;;;;5.78;2.28;;;17.00;81.10;;;;;;5043049;28;20720;-71
2022/09/20 11:50:31;;;;;;;5.93;2.10;;;17.40;80.50;;;;;;5044222;28;20213;-71
2022/09/20 11:53:24;;;;;;;4.63;1.73;;;17.10;80.40;;;;;;5042560;28;20482;-70
2022/09/20 11:56:00;;;;;;;2.83;1.88;;;17.00;81.80;;;;;;5058937;28;20296;-71
2022/09/20 11:58:26;;;;;;;2.65;1.95;;;16.80;83.10;;;;;;5040599;28;20891;-71
2022/09/20 12:00:55;;;;;;;6.23;4.30;;;16.90;84.80;;;;;;5037721;28;20185;-71
2022/09/20 12:03:21;;;;;;;4.18;2.70;;;16.90;85.20;;;;;;5044965;28;20502;-71
2022/09/20 12:05:55;;;;;;;2.70;1.93;;;16.60;86.60;;;;;;5039636;28;20629;-70
2022/09/20 12:08:41;;;;;;;3.20;1.67;;;16.70;85.50;;;;;;5043919;28;20174;-71
2022/09/20 12:11:13;;;;;;;3.42;1.50;;;16.50;81.90;;;;;;5040996;28;20209;-71
2022/09/20 12:13:41;;;;;;;2.47;1.63;;;16.00;82.40;;;;;;5040819;28;20182;-71
2022/09/20 12:16:16;;;;;;;2.65;1.70;;;16.90;81.60;;;;;;5038704;28;20194;-70
2022/09/20 12:19:02;;;;;;;3.45;2.03;;;16.60;76.80;;;;;;5038741;28;20235;-71
2022/09/20 12:21:28;;;;;;;2.30;1.55;;;16.90;76.20;;;;;;5043564;28;20655;-71
2022/09/20 12:23:56;;;;;;;6.53;1.50;;;17.10;76.30;;;;;;5042675;28;20197;-71
2022/09/20 12:26:22;;;;;;;2.53;1.45;;;17.10;74.70;;;;;;5044619;28;20884;-71
2022/09/20 12:28:53;;;;;;;5.37;1.53;;;16.90;72.50;;;;;;5042995;28;20247;-70
2022/09/20 12:31:22;;;;;;;2.42;1.75;;;17.10;73.20;;;;;;5039671;28;20244;-70
2022/09/20 12:34:31;;;;;;;3.85;1.33;;;17.10;70.80;;;;;;5046145;28;20188;-71
2022/09/20 12:36:56;;;;;;;2.55;1.33;;;17.00;69.80;;;;;;5032861;28;20197;-71
2022/09/20 12:39:24;;;;;;;4.93;2.60;;;17.00;69.90;;;;;;5045211;28;20561;-71
2022/09/20 12:41:58;;;;;;;2.38;2.10;;;16.80;71.90;;;;;;5043786;28;20697;-71
2022/09/20 12:44:33;;;;;;;3.20;1.90;;;17.10;73.00;;;;;;5046947;28;20264;-70
2022/09/20 12:47:00;;;;;;;3.60;2.13;;;17.10;71.90;;;;;;5045538;28;20291;-69
2022/09/20 12:52:49;;;;;;;2.55;1.67;;;17.10;76.00;;;;;;5046194;28;20201;-69
2022/09/20 12:55:30;;;;;;;5.07;1.70;;;17.20;76.10;;;;;;5040423;28;20204;-70
2022/09/20 12:57:57;;;;;;;3.90;1.90;;;17.10;75.20;;;;;;5045455;28;20588;-69
2022/09/20 13:00:49;;;;;;;5.18;3.17;;;17.20;77.10;;;;;;5050430;28;20228;-69
2022/09/20 13:03:24;;;;;;;4.45;2.00;;;17.00;78.50;;;;;;5040718;28;20182;-70
2022/09/20 13:06:13;;;;;;;3.50;2.30;;;16.80;77.90;;;;;;5047937;28;20274;-69
2022/09/20 13:09:04;;;;;;;2.88;1.90;;;16.90;76.40;;;;;;5045363;28;20178;-69
2022/09/20 13:11:46;;;;;;;3.78;1.60;;;16.90;75.60;;;;;;5046543;28;20260;-70
2022/09/20 13:14:17;;;;;;;3.13;1.45;;;17.10;75.40;;;;;;5043043;28;20220;-71
2022/09/20 13:16:52;;;;;;;4.10;2.63;;;17.20;74.50;;;;;;5047326;28;20178;-71
2022/09/20 13:19:27;;;;;;;3.85;2.53;;;17.30;72.50;;;;;;5044308;28;20291;-70
2022/09/20 13:21:59;;;;;;;2.97;1.50;;;17.10;72.90;;;;;;5045825;28;20181;-71
2022/09/20 13:24:27;;;;;;;3.00;1.65;;;17.00;72.40;;;;;;5048900;28;20205;-71
2022/09/20 13:26:55;;;;;;;1.92;1.80;;;16.70;72.90;;;;;;5051515;28;20339;-71
2022/09/20 13:29:36;;;;;;;3.28;1.92;;;17.00;74.50;;;;;;5049447;28;20188;-71
2022/09/20 13:32:24;;;;;;;2.75;1.70;;;17.00;75.50;;;;;;5043018;28;20234;-71
2022/09/20 13:35:07;;;;;;;6.60;4.97;;;16.80;75.40;;;;;;5054003;28;20233;-71
2022/09/20 13:37:34;;;;;;;5.55;1.70;;;17.00;75.20;;;;;;5039467;28;20605;-71
2022/09/20 13:40:01;;;;;;;3.55;1.80;;;17.00;76.50;;;;;;5041412;28;20206;-71
2022/09/20 13:42:28;;;;;;;4.20;1.90;;;16.80;77.30;;;;;;5042763;28;20721;-71
2022/09/20 13:44:57;;;;;;;4.05;3.00;;;16.90;78.70;;;;;;5049352;28;20201;-70
2022/09/20 13:47:30;;;;;;;2.45;1.77;;;16.80;79.00;;;;;;5040920;28;20308;-71
2022/09/20 13:50:01;;;;;;;3.90;1.88;;;16.80;79.00;;;;;;5049811;28;20217;-71
2022/09/20 13:52:30;;;;;;;2.53;2.33;;;17.00;79.60;;;;;;5040774;28;20205;-70